Map

Track Data

SID SEASON NUMBER BASIN SUBBASIN NAME ISO_TIME NATURE LAT LON WMO_WIND WMO_PRES WMO_AGENCY TRACK_TYPE DIST2LAND LANDFALL IFLAG USA_AGENCY USA_ATCF_ID USA_LAT USA_LON USA_RECORD USA_STATUS USA_WIND USA_PRES USA_SSHS USA_R34_NE USA_R34_SE USA_R34_SW USA_R34_NW USA_R50_NE USA_R50_SE USA_R50_SW USA_R50_NW USA_R64_NE USA_R64_SE USA_R64_SW USA_R64_NW USA_POCI USA_ROCI USA_RMW USA_EYE TOKYO_LAT TOKYO_LON TOKYO_GRADE TOKYO_WIND TOKYO_PRES TOKYO_R50_DIR TOKYO_R50_LONG TOKYO_R50_SHORT TOKYO_R30_DIR TOKYO_R30_LONG TOKYO_R30_SHORT TOKYO_LAND CMA_LAT CMA_LON CMA_CAT CMA_WIND CMA_PRES HKO_LAT HKO_LON HKO_CAT HKO_WIND HKO_PRES NEWDELHI_LAT NEWDELHI_LON NEWDELHI_GRADE NEWDELHI_WIND NEWDELHI_PRES NEWDELHI_CI NEWDELHI_DP NEWDELHI_POCI REUNION_LAT REUNION_LON REUNION_TYPE REUNION_WIND REUNION_PRES REUNION_TNUM REUNION_CI REUNION_RMW REUNION_R34_NE REUNION_R34_SE REUNION_R34_SW REUNION_R34_NW REUNION_R50_NE REUNION_R50_SE REUNION_R50_SW REUNION_R50_NW REUNION_R64_NE REUNION_R64_SE REUNION_R64_SW REUNION_R64_NW BOM_LAT BOM_LON BOM_TYPE BOM_WIND BOM_PRES BOM_TNUM BOM_CI BOM_RMW BOM_R34_NE BOM_R34_SE BOM_R34_SW BOM_R34_NW BOM_R50_NE BOM_R50_SE BOM_R50_SW BOM_R50_NW BOM_R64_NE BOM_R64_SE BOM_R64_SW BOM_R64_NW BOM_ROCI BOM_POCI BOM_EYE BOM_POS_METHOD BOM_PRES_METHOD NADI_LAT NADI_LON NADI_CAT NADI_WIND NADI_PRES WELLINGTON_LAT WELLINGTON_LON WELLINGTON_WIND WELLINGTON_PRES DS824_LAT DS824_LON DS824_STAGE DS824_WIND DS824_PRES TD9636_LAT TD9636_LON TD9636_STAGE TD9636_WIND TD9636_PRES TD9635_LAT TD9635_LON TD9635_WIND TD9635_PRES TD9635_ROCI NEUMANN_LAT NEUMANN_LON NEUMANN_CLASS NEUMANN_WIND NEUMANN_PRES MLC_LAT MLC_LON MLC_CLASS MLC_WIND MLC_PRES USA_GUST BOM_GUST BOM_GUST_PER REUNION_GUST REUNION_GUST_PER USA_SEAHGT USA_SEARAD_NE USA_SEARAD_SE USA_SEARAD_SW USA_SEARAD_NW STORM_SPEED STORM_DIR
1970286N25292 1970 135 NA NA NOT_NAMED 1970-10-12 12:00:00 SS 24.5000 -68.5000 30 1003 hurdat_atl main 568 568 O_____________ hurdat_atl AL181970 24.5000 -68.5000 SD 30 1003 -2 7 46
1970286N25292 1970 135 NA NA NOT_NAMED 1970-10-12 15:00:00 SS 24.7477 -68.2152 main 599 599 P_____________ AL181970 24.7477 -68.2152 SD 32 -2 7 48
1970286N25292 1970 135 NA NA NOT_NAMED 1970-10-12 18:00:00 SS 25.0000 -67.9000 35 hurdat_atl main 641 641 O_____________ hurdat_atl AL181970 25.0000 -67.9000 SS 35 -2 8 51
1970286N25292 1970 135 NA NA NOT_NAMED 1970-10-12 21:00:00 SS 25.2570 -67.5173 main 686 686 P_____________ AL181970 25.2570 -67.5173 SS 35 -2 10 58
1970286N25292 1970 135 NA NA NOT_NAMED 1970-10-13 00:00:00 SS 25.5000 -67.0000 35 hurdat_atl main 727 727 O_____________ hurdat_atl AL181970 25.5000 -67.0000 SS 35 -2 12 68
1970286N25292 1970 135 NA NA NOT_NAMED 1970-10-13 03:00:00 SS 25.7079 -66.2799 main 778 778 P_____________ AL181970 25.7079 -66.2799 SS 35 -2 14 74
1970286N25292 1970 135 NA NA NOT_NAMED 1970-10-13 06:00:00 SS 25.9000 -65.5000 35 hurdat_atl main 834 834 O_____________ hurdat_atl AL181970 25.9000 -65.5000 SS 35 -2 14 74
1970286N25292 1970 135 NA NA NOT_NAMED 1970-10-13 09:00:00 SS 26.1001 -64.7825 main 864 864 P_____________ AL181970 26.1001 -64.7825 SS 35 -2 12 71
1970286N25292 1970 135 NA NA NOT_NAMED 1970-10-13 12:00:00 SS 26.3000 -64.2000 35 1002 hurdat_atl main 894 894 O_____________ hurdat_atl AL181970 26.3000 -64.2000 SS 35 1002 -2 10 65
1970286N25292 1970 135 NA NA NOT_NAMED 1970-10-13 15:00:00 SS 26.5071 -63.7875 main 924 924 P_____________ AL181970 26.5071 -63.7875 SS 35 1001 -2 7 53
1970286N25292 1970 135 NA NA NOT_NAMED 1970-10-13 18:00:00 SS 26.7000 -63.6000 35 hurdat_atl main 950 950 I_____________ hurdat_atl AL181970 26.7000 -63.6000 SS 35 1001 -2 4 28
1970286N25292 1970 135 NA NA NOT_NAMED 1970-10-13 21:00:00 SS 26.8795 -63.5648 main 972 972 P_____________ AL181970 26.8795 -63.5648 SS 37 1001 -2 4 330
1970286N25292 1970 135 NA NA NOT_NAMED 1970-10-14 00:00:00 SS 27.0000 -63.8000 40 1001 hurdat_atl main 978 970 O_____________ hurdat_atl AL181970 27.0000 -63.8000 SS 40 1001 -2 7 282
1970286N25292 1970 135 NA NA NOT_NAMED 1970-10-14 03:00:00 SS 27.0228 -64.3177 main 970 963 P_____________ AL181970 27.0228 -64.3177 SS 42 1001 -2 11 270
1970286N25292 1970 135 NA NA NOT_NAMED 1970-10-14 06:00:00 SS 27.0000 -65.0000 45 hurdat_atl main 963 935 I_____________ hurdat_atl AL181970 27.0000 -65.0000 SS 45 1001 -2 12 268
1970286N25292 1970 135 NA NA NOT_NAMED 1970-10-14 09:00:00 SS 26.9853 -65.6877 main 935 909 P_____________ AL181970 26.9853 -65.6877 SS 47 1001 -2 12 270
1970286N25292 1970 135 NA NA NOT_NAMED 1970-10-14 12:00:00 SS 27.0000 -66.3000 50 1001 hurdat_atl main 909 896 O_____________ hurdat_atl AL181970 27.0000 -66.3000 SS 50 1001 -2 9 276
1970286N25292 1970 135 NA NA NOT_NAMED 1970-10-14 15:00:00 SS 27.0771 -66.7249 main 903 895 P_____________ AL181970 27.0771 -66.7249 SS 52 1000 -2 7 288
1970286N25292 1970 135 NA NA NOT_NAMED 1970-10-14 18:00:00 SS 27.2000 -67.0000 55 999 hurdat_atl main 902 898 O_____________ hurdat_atl AL181970 27.2000 -67.0000 SS 55 999 -2 5 302
1970286N25292 1970 135 NA NA NOT_NAMED 1970-10-14 21:00:00 SS 27.3424 -67.1950 main 899 899 P_____________ AL181970 27.3424 -67.1950 SS 55 998 -2 4 319
1970286N25292 1970 135 NA NA NOT_NAMED 1970-10-15 00:00:00 TS 27.5000 -67.3000 55 997 hurdat_atl main 909 909 O_____________ hurdat_atl AL181970 27.5000 -67.3000 TS 55 997 0 3 331
1970286N25292 1970 135 NA NA NOT_NAMED 1970-10-15 03:00:00 TS 27.6350 -67.3726 main 912 912 P_____________ AL181970 27.6350 -67.3726 TS 55 996 0 3 344
1970286N25292 1970 135 NA NA NOT_NAMED 1970-10-15 06:00:00 TS 27.8000 -67.4000 55 hurdat_atl main 929 929 I_____________ hurdat_atl AL181970 27.8000 -67.4000 TS 55 996 0 4 354
1970286N25292 1970 135 NA NA NOT_NAMED 1970-10-15 09:00:00 TS 28.0125 -67.4075 main 947 947 P_____________ AL181970 28.0125 -67.4075 TS 55 995 0 5 2
1970286N25292 1970 135 NA NA NOT_NAMED 1970-10-15 12:00:00 TS 28.3000 -67.4000 55 995 hurdat_atl main 973 973 O_____________ hurdat_atl AL181970 28.3000 -67.4000 TS 55 995 0 7 0
1970286N25292 1970 135 NA NA NOT_NAMED 1970-10-15 15:00:00 TS 28.6700 -67.4222 main 1009 1009 P_____________ AL181970 28.6700 -67.4222 TS 55 994 0 8 1
1970286N25292 1970 135 NA NA NOT_NAMED 1970-10-15 18:00:00 TS 29.1000 -67.4000 55 994 hurdat_atl main 1046 1037 O_____________ hurdat_atl AL181970 29.1000 -67.4000 TS 55 994 0 9 8
1970286N25292 1970 135 NA NA NOT_NAMED 1970-10-15 21:00:00 TS 29.5575 -67.2876 main 1030 1014 P_____________ AL181970 29.5575 -67.2876 TS 57 992 0 9 16
1970286N25292 1970 135 NA NA NOT_NAMED 1970-10-16 00:00:00 TS 30.0000 -67.1000 60 991 hurdat_atl main 1014 1007 O_____________ hurdat_atl AL181970 30.0000 -67.1000 TS 60 991 0 9 24
1970286N25292 1970 135 NA NA NOT_NAMED 1970-10-16 03:00:00 TS 30.3575 -66.8722 main 1000 1000 P_____________ AL181970 30.3575 -66.8722 TS 60 992 0 8 32
1970286N25292 1970 135 NA NA NOT_NAMED 1970-10-16 06:00:00 TS 30.7000 -66.6000 60 994 hurdat_atl main 1002 991 O_____________ hurdat_atl AL181970 30.7000 -66.6000 TS 60 994 0 8 32
1970286N25292 1970 135 NA NA NOT_NAMED 1970-10-16 09:00:00 TS 31.0770 -66.3589 main 991 991 P_____________ AL181970 31.0770 -66.3589 TS 62 991 0 10 33
1970286N25292 1970 135 NA NA NOT_NAMED 1970-10-16 12:00:00 TS 31.5000 -66.0000 65 989 hurdat_atl main 999 999 O_____________ hurdat_atl AL181970 31.5000 -66.0000 HU 65 989 1 12 43
1970286N25292 1970 135 NA NA NOT_NAMED 1970-10-16 15:00:00 TS 31.9478 -65.4019 main 1026 1021 P_____________ AL181970 31.9478 -65.4019 HU 70 985 1 15 48
1970286N25292 1970 135 NA NA NOT_NAMED 1970-10-16 18:00:00 TS 32.5000 -64.7000 75 982 hurdat_atl main 1057 1057 O_____________ hurdat_atl AL181970 32.5000 -64.7000 HU 75 982 1 17 43
1970286N25292 1970 135 NA NA NOT_NAMED 1970-10-16 21:00:00 TS 33.1446 -64.0553 main 1084 1037 P_____________ AL181970 33.1446 -64.0553 HU 75 982 1 19 36
1970286N25292 1970 135 NA NA NOT_NAMED 1970-10-17 00:00:00 TS 34.0000 -63.4000 75 983 hurdat_atl main 1033 970 O_____________ hurdat_atl AL181970 34.0000 -63.4000 HU 75 983 1 23 29
1970286N25292 1970 135 NA NA NOT_NAMED 1970-10-17 03:00:00 TS 35.1173 -62.7140 main 961 846 P_____________ AL181970 35.1173 -62.7140 HU 80 978 1 27 26
1970286N25292 1970 135 NA NA NOT_NAMED 1970-10-17 06:00:00 TS 36.4000 -62.0000 85 974 hurdat_atl main 838 737 O_____________ hurdat_atl AL181970 36.4000 -62.0000 HU 85 974 2 28 25
1970286N25292 1970 135 NA NA NOT_NAMED 1970-10-17 09:00:00 TS 37.6548 -61.2547 main 727 649 P_____________ AL181970 37.6548 -61.2547 HU 85 974 2 29 25
1970286N25292 1970 135 NA NA NOT_NAMED 1970-10-17 12:00:00 TS 39.0000 -60.5000 85 975 hurdat_atl main 640 536 O_____________ hurdat_atl AL181970 39.0000 -60.5000 HU 85 975 2 30 23
1970286N25292 1970 135 NA NA NOT_NAMED 1970-10-17 15:00:00 TS 40.4658 -59.7548 main 526 403 P_____________ AL181970 40.4658 -59.7548 HU 77 1 32 21
1970286N25292 1970 135 NA NA NOT_NAMED 1970-10-17 18:00:00 TS 42.0000 -59.0000 70 hurdat_atl main 393 O_____________ hurdat_atl AL181970 42.0000 -59.0000 HU 70 1 33 20

About IBTrACS Database

This database is a web-friendly format of International Best Track Archive for Climate Stewardship (IBTrACS), a global best track data archive curated by NOAA dating back to 1842.

Updated: 2022-11-16